sensor_id;sensor_type;location;lat;lon;timestamp;P1;durP1;ratioP1;P2;durP2;ratioP2
84431;SDS011;74658;51.736;7.038;2024-03-25T00:00:47;16.90;;;2.70;;
84431;SDS011;74658;51.736;7.038;2024-03-25T00:05:48;12.40;;;2.70;;
84431;SDS011;74658;51.736;7.038;2024-03-25T00:10:48;15.60;;;2.60;;
84431;SDS011;74658;51.736;7.038;2024-03-25T00:15:49;17.60;;;2.90;;
84431;SDS011;74658;51.736;7.038;2024-03-25T00:20:49;13.50;;;2.30;;
84431;SDS011;74658;51.736;7.038;2024-03-25T00:25:50;15.50;;;2.80;;
84431;SDS011;74658;51.736;7.038;2024-03-25T00:30:51;20.30;;;2.70;;
84431;SDS011;74658;51.736;7.038;2024-03-25T00:35:51;18.80;;;2.90;;
84431;SDS011;74658;51.736;7.038;2024-03-25T00:40:52;14.10;;;2.50;;
84431;SDS011;74658;51.736;7.038;2024-03-25T00:45:52;16.40;;;2.70;;
84431;SDS011;74658;51.736;7.038;2024-03-25T00:50:53;14.30;;;2.80;;
84431;SDS011;74658;51.736;7.038;2024-03-25T00:55:54;18.80;;;3.10;;
84431;SDS011;74658;51.736;7.038;2024-03-25T01:00:54;20.70;;;2.50;;
84431;SDS011;74658;51.736;7.038;2024-03-25T01:05:55;17.80;;;2.60;;
84431;SDS011;74658;51.736;7.038;2024-03-25T01:10:56;12.70;;;2.60;;
84431;SDS011;74658;51.736;7.038;2024-03-25T01:15:56;12.20;;;2.40;;
84431;SDS011;74658;51.736;7.038;2024-03-25T01:20:57;13.50;;;2.90;;
84431;SDS011;74658;51.736;7.038;2024-03-25T01:25:57;12.90;;;2.30;;
84431;SDS011;74658;51.736;7.038;2024-03-25T01:30:58;12.00;;;2.20;;
84431;SDS011;74658;51.736;7.038;2024-03-25T01:35:58;11.30;;;2.40;;
84431;SDS011;74658;51.736;7.038;2024-03-25T01:41:06;15.10;;;2.50;;
84431;SDS011;74658;51.736;7.038;2024-03-25T01:46:00;11.60;;;2.40;;
84431;SDS011;74658;51.736;7.038;2024-03-25T01:51:00;14.90;;;2.80;;
84431;SDS011;74658;51.736;7.038;2024-03-25T01:56:01;14.20;;;3.10;;
84431;SDS011;74658;51.736;7.038;2024-03-25T02:01:01;16.50;;;3.00;;
84431;SDS011;74658;51.736;7.038;2024-03-25T02:06:02;15.90;;;3.50;;
84431;SDS011;74658;51.736;7.038;2024-03-25T02:11:03;15.90;;;2.90;;
84431;SDS011;74658;51.736;7.038;2024-03-25T02:16:03;14.50;;;3.00;;
84431;SDS011;74658;51.736;7.038;2024-03-25T02:21:04;17.00;;;2.90;;
84431;SDS011;74658;51.736;7.038;2024-03-25T02:26:04;15.90;;;2.80;;
84431;SDS011;74658;51.736;7.038;2024-03-25T02:31:05;16.80;;;2.60;;
84431;SDS011;74658;51.736;7.038;2024-03-25T02:36:06;16.40;;;3.00;;
84431;SDS011;74658;51.736;7.038;2024-03-25T02:41:06;15.80;;;2.90;;
84431;SDS011;74658;51.736;7.038;2024-03-25T02:46:07;18.80;;;3.70;;
84431;SDS011;74658;51.736;7.038;2024-03-25T02:51:07;25.80;;;5.60;;
84431;SDS011;74658;51.736;7.038;2024-03-25T02:56:08;32.00;;;8.20;;
84431;SDS011;74658;51.736;7.038;2024-03-25T03:01:08;37.10;;;10.50;;
84431;SDS011;74658;51.736;7.038;2024-03-25T03:06:09;41.60;;;11.80;;
84431;SDS011;74658;51.736;7.038;2024-03-25T03:11:09;43.00;;;12.40;;
84431;SDS011;74658;51.736;7.038;2024-03-25T03:16:10;50.00;;;13.20;;
84431;SDS011;74658;51.736;7.038;2024-03-25T03:21:12;41.60;;;12.30;;
84431;SDS011;74658;51.736;7.038;2024-03-25T03:26:12;44.00;;;13.10;;
84431;SDS011;74658;51.736;7.038;2024-03-25T03:31:13;42.20;;;12.70;;
84431;SDS011;74658;51.736;7.038;2024-03-25T03:36:14;39.50;;;11.90;;
84431;SDS011;74658;51.736;7.038;2024-03-25T03:41:14;46.10;;;13.10;;
84431;SDS011;74658;51.736;7.038;2024-03-25T03:46:14;43.60;;;11.30;;
84431;SDS011;74658;51.736;7.038;2024-03-25T03:51:15;28.50;;;9.00;;
84431;SDS011;74658;51.736;7.038;2024-03-25T03:56:16;35.20;;;8.90;;
84431;SDS011;74658;51.736;7.038;2024-03-25T04:01:16;24.90;;;6.30;;
84431;SDS011;74658;51.736;7.038;2024-03-25T04:06:17;25.70;;;6.20;;
84431;SDS011;74658;51.736;7.038;2024-03-25T04:11:17;24.50;;;6.90;;
84431;SDS011;74658;51.736;7.038;2024-03-25T04:16:18;30.60;;;6.20;;
84431;SDS011;74658;51.736;7.038;2024-03-25T04:21:19;29.40;;;6.60;;
84431;SDS011;74658;51.736;7.038;2024-03-25T04:26:19;28.80;;;6.70;;
84431;SDS011;74658;51.736;7.038;2024-03-25T04:31:20;25.90;;;6.60;;
84431;SDS011;74658;51.736;7.038;2024-03-25T04:36:20;30.50;;;6.40;;
84431;SDS011;74658;51.736;7.038;2024-03-25T04:41:21;26.30;;;5.40;;
84431;SDS011;74658;51.736;7.038;2024-03-25T04:46:22;24.00;;;6.20;;
84431;SDS011;74658;51.736;7.038;2024-03-25T04:51:22;20.70;;;5.20;;
84431;SDS011;74658;51.736;7.038;2024-03-25T04:56:23;30.80;;;5.80;;
84431;SDS011;74658;51.736;7.038;2024-03-25T05:01:23;31.10;;;5.50;;
84431;SDS011;74658;51.736;7.038;2024-03-25T05:06:24;27.80;;;5.80;;
84431;SDS011;74658;51.736;7.038;2024-03-25T05:11:25;27.50;;;6.20;;
84431;SDS011;74658;51.736;7.038;2024-03-25T05:16:25;24.40;;;5.40;;
84431;SDS011;74658;51.736;7.038;2024-03-25T05:21:27;28.50;;;5.40;;
84431;SDS011;74658;51.736;7.038;2024-03-25T05:26:27;22.60;;;5.90;;
84431;SDS011;74658;51.736;7.038;2024-03-25T05:31:28;28.60;;;5.60;;
84431;SDS011;74658;51.736;7.038;2024-03-25T05:36:28;30.90;;;6.60;;
84431;SDS011;74658;51.736;7.038;2024-03-25T05:41:29;28.40;;;6.00;;
84431;SDS011;74658;51.736;7.038;2024-03-25T05:46:30;28.80;;;6.30;;
84431;SDS011;74658;51.736;7.038;2024-03-25T05:51:30;33.10;;;6.50;;
84431;SDS011;74658;51.736;7.038;2024-03-25T05:56:31;33.20;;;6.60;;
84431;SDS011;74658;51.736;7.038;2024-03-25T06:01:31;28.80;;;6.30;;
84431;SDS011;74658;51.736;7.038;2024-03-25T06:06:32;31.70;;;6.00;;
84431;SDS011;74658;51.736;7.038;2024-03-25T06:11:33;30.30;;;6.80;;
84431;SDS011;74658;51.736;7.038;2024-03-25T06:16:33;27.80;;;6.00;;
84431;SDS011;74658;51.736;7.038;2024-03-25T06:21:33;32.10;;;5.90;;
84431;SDS011;74658;51.736;7.038;2024-03-25T06:26:34;34.60;;;6.50;;
84431;SDS011;74658;51.736;7.038;2024-03-25T06:31:35;24.70;;;6.00;;
84431;SDS011;74658;51.736;7.038;2024-03-25T06:36:35;32.00;;;6.50;;
84431;SDS011;74658;51.736;7.038;2024-03-25T06:41:36;30.60;;;6.30;;
84431;SDS011;74658;51.736;7.038;2024-03-25T06:46:36;27.70;;;6.30;;
84431;SDS011;74658;51.736;7.038;2024-03-25T06:51:37;30.50;;;7.00;;
84431;SDS011;74658;51.736;7.038;2024-03-25T06:56:37;25.20;;;6.00;;
84431;SDS011;74658;51.736;7.038;2024-03-25T07:01:39;26.40;;;6.20;;
84431;SDS011;74658;51.736;7.038;2024-03-25T07:06:39;29.50;;;6.60;;
84431;SDS011;74658;51.736;7.038;2024-03-25T07:11:39;31.40;;;5.70;;
84431;SDS011;74658;51.736;7.038;2024-03-25T07:16:40;24.90;;;6.20;;
84431;SDS011;74658;51.736;7.038;2024-03-25T07:21:40;27.00;;;5.40;;
84431;SDS011;74658;51.736;7.038;2024-03-25T07:26:41;22.60;;;4.90;;
84431;SDS011;74658;51.736;7.038;2024-03-25T07:31:42;23.00;;;5.70;;
84431;SDS011;74658;51.736;7.038;2024-03-25T07:36:42;14.70;;;4.60;;
84431;SDS011;74658;51.736;7.038;2024-03-25T07:41:43;20.00;;;4.70;;
84431;SDS011;74658;51.736;7.038;2024-03-25T07:46:43;18.80;;;5.20;;
84431;SDS011;74658;51.736;7.038;2024-03-25T07:51:44;19.60;;;5.10;;
84431;SDS011;74658;51.736;7.038;2024-03-25T07:56:45;20.20;;;5.30;;
84431;SDS011;74658;51.736;7.038;2024-03-25T08:01:45;18.60;;;4.90;;
84431;SDS011;74658;51.736;7.038;2024-03-25T08:06:46;19.70;;;4.00;;
84431;SDS011;74658;51.736;7.038;2024-03-25T08:11:47;15.40;;;4.30;;
84431;SDS011;74658;51.736;7.038;2024-03-25T08:16:47;22.80;;;4.60;;
84431;SDS011;74658;51.736;7.038;2024-03-25T08:21:48;19.40;;;4.20;;
84431;SDS011;74658;51.736;7.038;2024-03-25T08:26:48;18.10;;;6.00;;
84431;SDS011;74658;51.736;7.038;2024-03-25T08:31:49;14.80;;;3.90;;
84431;SDS011;74658;51.736;7.038;2024-03-25T08:36:49;17.10;;;3.20;;
84431;SDS011;74658;51.736;7.038;2024-03-25T08:41:50;14.70;;;3.60;;
84431;SDS011;74658;51.736;7.038;2024-03-25T08:46:51;15.30;;;3.70;;
84431;SDS011;74658;51.736;7.038;2024-03-25T08:51:51;12.70;;;3.40;;
84431;SDS011;74658;51.736;7.038;2024-03-25T08:56:52;17.90;;;3.60;;
84431;SDS011;74658;51.736;7.038;2024-03-25T09:01:53;16.70;;;3.30;;
84431;SDS011;74658;51.736;7.038;2024-03-25T09:06:53;13.30;;;3.10;;
84431;SDS011;74658;51.736;7.038;2024-03-25T09:11:54;12.50;;;2.80;;
84431;SDS011;74658;51.736;7.038;2024-03-25T09:16:55;10.30;;;2.40;;
84431;SDS011;74658;51.736;7.038;2024-03-25T09:21:55;12.80;;;2.80;;
84431;SDS011;74658;51.736;7.038;2024-03-25T09:26:59;13.90;;;2.80;;
84431;SDS011;74658;51.736;7.038;2024-03-25T09:31:57;13.80;;;2.80;;
84431;SDS011;74658;51.736;7.038;2024-03-25T09:36:58;10.30;;;3.00;;
84431;SDS011;74658;51.736;7.038;2024-03-25T09:41:58;11.50;;;2.20;;
84431;SDS011;74658;51.736;7.038;2024-03-25T09:46:59;9.50;;;2.00;;
84431;SDS011;74658;51.736;7.038;2024-03-25T09:52:00;9.90;;;2.10;;
84431;SDS011;74658;51.736;7.038;2024-03-25T09:57:01;11.40;;;2.70;;
84431;SDS011;74658;51.736;7.038;2024-03-25T10:02:01;7.10;;;1.80;;
84431;SDS011;74658;51.736;7.038;2024-03-25T10:07:02;8.40;;;1.80;;
84431;SDS011;74658;51.736;7.038;2024-03-25T10:12:02;9.50;;;2.00;;
84431;SDS011;74658;51.736;7.038;2024-03-25T10:17:03;7.80;;;2.20;;
84431;SDS011;74658;51.736;7.038;2024-03-25T10:22:04;11.20;;;2.40;;
84431;SDS011;74658;51.736;7.038;2024-03-25T10:27:04;11.20;;;2.80;;
84431;SDS011;74658;51.736;7.038;2024-03-25T10:32:04;9.10;;;2.20;;
84431;SDS011;74658;51.736;7.038;2024-03-25T10:37:05;15.30;;;2.30;;
84431;SDS011;74658;51.736;7.038;2024-03-25T10:42:06;10.20;;;1.90;;
84431;SDS011;74658;51.736;7.038;2024-03-25T10:47:06;7.70;;;2.00;;
84431;SDS011;74658;51.736;7.038;2024-03-25T10:52:07;11.00;;;2.10;;
84431;SDS011;74658;51.736;7.038;2024-03-25T10:57:07;8.20;;;1.80;;
84431;SDS011;74658;51.736;7.038;2024-03-25T11:02:08;10.10;;;2.20;;
84431;SDS011;74658;51.736;7.038;2024-03-25T11:07:09;14.00;;;2.60;;
84431;SDS011;74658;51.736;7.038;2024-03-25T11:12:10;9.40;;;2.10;;
84431;SDS011;74658;51.736;7.038;2024-03-25T11:17:14;9.20;;;2.20;;
84431;SDS011;74658;51.736;7.038;2024-03-25T11:22:10;8.30;;;1.70;;
84431;SDS011;74658;51.736;7.038;2024-03-25T11:27:11;7.00;;;1.80;;
84431;SDS011;74658;51.736;7.038;2024-03-25T11:32:11;7.40;;;2.00;;
84431;SDS011;74658;51.736;7.038;2024-03-25T11:37:12;7.50;;;1.80;;
84431;SDS011;74658;51.736;7.038;2024-03-25T11:42:13;8.30;;;1.90;;
84431;SDS011;74658;51.736;7.038;2024-03-25T11:47:13;8.50;;;2.20;;
84431;SDS011;74658;51.736;7.038;2024-03-25T11:52:14;10.80;;;3.10;;
84431;SDS011;74658;51.736;7.038;2024-03-25T11:57:14;8.80;;;2.10;;
84431;SDS011;74658;51.736;7.038;2024-03-25T12:02:15;9.00;;;2.70;;
84431;SDS011;74658;51.736;7.038;2024-03-25T12:07:15;10.00;;;2.30;;
84431;SDS011;74658;51.736;7.038;2024-03-25T12:12:16;7.60;;;2.60;;
84431;SDS011;74658;51.736;7.038;2024-03-25T12:17:17;9.20;;;2.70;;
84431;SDS011;74658;51.736;7.038;2024-03-25T12:22:17;10.10;;;2.50;;
84431;SDS011;74658;51.736;7.038;2024-03-25T12:27:18;9.20;;;2.80;;
84431;SDS011;74658;51.736;7.038;2024-03-25T12:32:18;8.60;;;2.50;;
84431;SDS011;74658;51.736;7.038;2024-03-25T12:37:19;10.00;;;2.90;;
84431;SDS011;74658;51.736;7.038;2024-03-25T12:42:19;9.30;;;3.10;;
84431;SDS011;74658;51.736;7.038;2024-03-25T12:47:20;9.10;;;2.90;;
84431;SDS011;74658;51.736;7.038;2024-03-25T12:52:21;10.80;;;3.60;;
84431;SDS011;74658;51.736;7.038;2024-03-25T12:57:21;8.60;;;3.40;;
84431;SDS011;74658;51.736;7.038;2024-03-25T13:02:22;13.60;;;4.30;;
84431;SDS011;74658;51.736;7.038;2024-03-25T13:07:22;11.30;;;4.00;;
84431;SDS011;74658;51.736;7.038;2024-03-25T13:12:23;7.40;;;3.70;;
84431;SDS011;74658;51.736;7.038;2024-03-25T13:17:23;10.00;;;3.90;;
84431;SDS011;74658;51.736;7.038;2024-03-25T13:22:24;7.70;;;3.60;;
84431;SDS011;74658;51.736;7.038;2024-03-25T13:27:25;10.40;;;3.90;;
84431;SDS011;74658;51.736;7.038;2024-03-25T13:32:25;7.60;;;3.30;;
84431;SDS011;74658;51.736;7.038;2024-03-25T13:37:26;10.50;;;4.20;;
84431;SDS011;74658;51.736;7.038;2024-03-25T13:42:27;11.40;;;4.10;;
84431;SDS011;74658;51.736;7.038;2024-03-25T13:47:27;8.60;;;3.60;;
84431;SDS011;74658;51.736;7.038;2024-03-25T13:52:28;10.10;;;3.50;;
84431;SDS011;74658;51.736;7.038;2024-03-25T13:57:28;8.20;;;3.20;;
84431;SDS011;74658;51.736;7.038;2024-03-25T14:02:29;9.00;;;3.10;;
84431;SDS011;74658;51.736;7.038;2024-03-25T14:07:29;9.00;;;3.60;;
84431;SDS011;74658;51.736;7.038;2024-03-25T14:12:30;8.30;;;3.60;;
84431;SDS011;74658;51.736;7.038;2024-03-25T14:17:31;8.90;;;3.00;;
84431;SDS011;74658;51.736;7.038;2024-03-25T14:22:31;8.20;;;3.20;;
84431;SDS011;74658;51.736;7.038;2024-03-25T14:27:32;9.00;;;3.30;;
84431;SDS011;74658;51.736;7.038;2024-03-25T14:32:32;9.20;;;3.20;;
84431;SDS011;74658;51.736;7.038;2024-03-25T14:37:33;8.70;;;2.70;;
84431;SDS011;74658;51.736;7.038;2024-03-25T14:42:34;7.10;;;3.10;;
84431;SDS011;74658;51.736;7.038;2024-03-25T14:47:34;7.90;;;2.80;;
84431;SDS011;74658;51.736;7.038;2024-03-25T14:52:35;8.40;;;2.80;;
84431;SDS011;74658;51.736;7.038;2024-03-25T14:57:35;6.90;;;2.60;;
84431;SDS011;74658;51.736;7.038;2024-03-25T15:02:36;9.90;;;2.80;;
84431;SDS011;74658;51.736;7.038;2024-03-25T15:07:36;7.70;;;2.60;;
84431;SDS011;74658;51.736;7.038;2024-03-25T15:12:37;6.80;;;2.40;;
84431;SDS011;74658;51.736;7.038;2024-03-25T15:17:38;9.10;;;2.50;;
84431;SDS011;74658;51.736;7.038;2024-03-25T15:22:38;7.90;;;2.40;;
84431;SDS011;74658;51.736;7.038;2024-03-25T15:27:39;7.10;;;2.20;;
84431;SDS011;74658;51.736;7.038;2024-03-25T15:32:39;7.70;;;2.10;;
84431;SDS011;74658;51.736;7.038;2024-03-25T15:37:40;10.00;;;2.20;;
84431;SDS011;74658;51.736;7.038;2024-03-25T15:42:40;8.50;;;2.20;;
84431;SDS011;74658;51.736;7.038;2024-03-25T15:47:41;9.20;;;2.20;;
84431;SDS011;74658;51.736;7.038;2024-03-25T15:52:42;7.00;;;1.80;;
84431;SDS011;74658;51.736;7.038;2024-03-25T15:57:42;7.70;;;2.20;;
84431;SDS011;74658;51.736;7.038;2024-03-25T16:02:43;5.80;;;1.60;;
84431;SDS011;74658;51.736;7.038;2024-03-25T16:07:43;7.10;;;1.70;;
84431;SDS011;74658;51.736;7.038;2024-03-25T16:12:44;7.60;;;1.90;;
84431;SDS011;74658;51.736;7.038;2024-03-25T16:17:45;6.40;;;1.70;;
84431;SDS011;74658;51.736;7.038;2024-03-25T16:22:46;10.00;;;1.90;;
84431;SDS011;74658;51.736;7.038;2024-03-25T16:27:46;8.70;;;1.80;;
84431;SDS011;74658;51.736;7.038;2024-03-25T16:32:46;6.80;;;1.80;;
84431;SDS011;74658;51.736;7.038;2024-03-25T16:37:47;8.60;;;1.90;;
84431;SDS011;74658;51.736;7.038;2024-03-25T16:42:48;7.10;;;1.90;;
84431;SDS011;74658;51.736;7.038;2024-03-25T16:47:48;11.60;;;1.90;;
84431;SDS011;74658;51.736;7.038;2024-03-25T16:52:49;9.50;;;1.80;;
84431;SDS011;74658;51.736;7.038;2024-03-25T16:57:49;5.70;;;1.70;;
84431;SDS011;74658;51.736;7.038;2024-03-25T17:02:50;9.50;;;2.00;;
84431;SDS011;74658;51.736;7.038;2024-03-25T17:07:51;9.80;;;2.10;;
84431;SDS011;74658;51.736;7.038;2024-03-25T17:12:51;7.90;;;2.00;;
84431;SDS011;74658;51.736;7.038;2024-03-25T17:17:52;6.40;;;1.90;;
84431;SDS011;74658;51.736;7.038;2024-03-25T17:22:52;9.30;;;2.60;;
84431;SDS011;74658;51.736;7.038;2024-03-25T17:27:53;10.20;;;2.60;;
84431;SDS011;74658;51.736;7.038;2024-03-25T17:32:54;10.40;;;2.90;;
84431;SDS011;74658;51.736;7.038;2024-03-25T17:37:54;9.30;;;2.90;;
84431;SDS011;74658;51.736;7.038;2024-03-25T17:42:55;13.00;;;3.90;;
84431;SDS011;74658;51.736;7.038;2024-03-25T17:47:55;14.60;;;3.60;;
84431;SDS011;74658;51.736;7.038;2024-03-25T17:52:56;10.50;;;3.10;;
84431;SDS011;74658;51.736;7.038;2024-03-25T17:57:57;13.40;;;3.20;;
84431;SDS011;74658;51.736;7.038;2024-03-25T18:02:57;11.10;;;3.80;;
84431;SDS011;74658;51.736;7.038;2024-03-25T18:07:58;13.80;;;3.80;;
84431;SDS011;74658;51.736;7.038;2024-03-25T18:12:59;14.70;;;4.90;;
84431;SDS011;74658;51.736;7.038;2024-03-25T18:17:59;13.60;;;6.00;;
84431;SDS011;74658;51.736;7.038;2024-03-25T18:23:00;12.50;;;5.70;;
84431;SDS011;74658;51.736;7.038;2024-03-25T18:28:00;12.50;;;4.40;;
84431;SDS011;74658;51.736;7.038;2024-03-25T18:33:01;12.70;;;3.90;;
84431;SDS011;74658;51.736;7.038;2024-03-25T18:38:02;38.10;;;16.40;;
84431;SDS011;74658;51.736;7.038;2024-03-25T18:43:02;21.40;;;10.00;;
84431;SDS011;74658;51.736;7.038;2024-03-25T18:48:02;20.30;;;11.50;;
84431;SDS011;74658;51.736;7.038;2024-03-25T18:53:03;20.70;;;11.10;;
84431;SDS011;74658;51.736;7.038;2024-03-25T18:58:04;19.40;;;10.10;;
84431;SDS011;74658;51.736;7.038;2024-03-25T19:03:04;12.90;;;4.80;;
84431;SDS011;74658;51.736;7.038;2024-03-25T19:08:05;21.80;;;12.10;;
84431;SDS011;74658;51.736;7.038;2024-03-25T19:13:05;10.30;;;3.80;;
84431;SDS011;74658;51.736;7.038;2024-03-25T19:18:06;28.30;;;17.00;;
84431;SDS011;74658;51.736;7.038;2024-03-25T19:23:07;17.90;;;5.80;;
84431;SDS011;74658;51.736;7.038;2024-03-25T19:28:07;12.40;;;4.70;;
84431;SDS011;74658;51.736;7.038;2024-03-25T19:33:08;10.10;;;3.70;;
84431;SDS011;74658;51.736;7.038;2024-03-25T19:38:08;14.60;;;4.70;;
84431;SDS011;74658;51.736;7.038;2024-03-25T19:43:09;23.90;;;11.30;;
84431;SDS011;74658;51.736;7.038;2024-03-25T19:48:10;13.80;;;5.80;;
84431;SDS011;74658;51.736;7.038;2024-03-25T19:53:10;18.40;;;12.50;;
84431;SDS011;74658;51.736;7.038;2024-03-25T19:58:11;15.50;;;8.20;;
84431;SDS011;74658;51.736;7.038;2024-03-25T20:03:11;10.60;;;3.90;;
84431;SDS011;74658;51.736;7.038;2024-03-25T20:08:12;14.70;;;6.10;;
84431;SDS011;74658;51.736;7.038;2024-03-25T20:13:12;14.60;;;6.60;;
84431;SDS011;74658;51.736;7.038;2024-03-25T20:18:13;10.60;;;6.10;;
84431;SDS011;74658;51.736;7.038;2024-03-25T20:23:15;11.80;;;5.30;;
84431;SDS011;74658;51.736;7.038;2024-03-25T20:28:15;12.50;;;5.10;;
84431;SDS011;74658;51.736;7.038;2024-03-25T20:33:16;11.10;;;4.90;;
84431;SDS011;74658;51.736;7.038;2024-03-25T20:38:17;10.90;;;4.10;;
84431;SDS011;74658;51.736;7.038;2024-03-25T20:43:17;11.90;;;7.80;;
84431;SDS011;74658;51.736;7.038;2024-03-25T20:48:18;12.00;;;4.30;;
84431;SDS011;74658;51.736;7.038;2024-03-25T20:53:18;24.60;;;15.90;;
84431;SDS011;74658;51.736;7.038;2024-03-25T20:58:19;15.70;;;6.70;;
84431;SDS011;74658;51.736;7.038;2024-03-25T21:03:20;16.90;;;8.00;;
84431;SDS011;74658;51.736;7.038;2024-03-25T21:08:20;13.40;;;6.90;;
84431;SDS011;74658;51.736;7.038;2024-03-25T21:13:21;13.20;;;8.00;;
84431;SDS011;74658;51.736;7.038;2024-03-25T21:18:21;21.80;;;11.70;;
84431;SDS011;74658;51.736;7.038;2024-03-25T21:23:22;18.50;;;7.60;;
84431;SDS011;74658;51.736;7.038;2024-03-25T21:28:23;16.30;;;7.90;;
84431;SDS011;74658;51.736;7.038;2024-03-25T21:33:23;23.60;;;12.00;;
84431;SDS011;74658;51.736;7.038;2024-03-25T21:38:24;21.50;;;11.80;;
84431;SDS011;74658;51.736;7.038;2024-03-25T21:43:24;19.20;;;9.50;;
84431;SDS011;74658;51.736;7.038;2024-03-25T21:48:25;17.00;;;10.00;;
84431;SDS011;74658;51.736;7.038;2024-03-25T21:53:26;13.90;;;5.70;;
84431;SDS011;74658;51.736;7.038;2024-03-25T21:58:26;13.30;;;5.20;;
84431;SDS011;74658;51.736;7.038;2024-03-25T22:03:27;11.10;;;4.80;;
84431;SDS011;74658;51.736;7.038;2024-03-25T22:08:27;15.80;;;5.10;;
84431;SDS011;74658;51.736;7.038;2024-03-25T22:13:28;12.50;;;6.00;;
84431;SDS011;74658;51.736;7.038;2024-03-25T22:18:29;12.00;;;4.70;;
84431;SDS011;74658;51.736;7.038;2024-03-25T22:23:29;11.00;;;4.30;;
84431;SDS011;74658;51.736;7.038;2024-03-25T22:28:30;13.50;;;5.80;;
84431;SDS011;74658;51.736;7.038;2024-03-25T22:33:30;9.70;;;4.10;;
84431;SDS011;74658;51.736;7.038;2024-03-25T22:38:31;13.20;;;4.70;;
84431;SDS011;74658;51.736;7.038;2024-03-25T22:43:32;13.10;;;4.50;;
84431;SDS011;74658;51.736;7.038;2024-03-25T22:48:32;20.50;;;6.20;;
84431;SDS011;74658;51.736;7.038;2024-03-25T22:53:33;15.80;;;5.00;;
84431;SDS011;74658;51.736;7.038;2024-03-25T22:58:34;11.90;;;4.60;;
84431;SDS011;74658;51.736;7.038;2024-03-25T23:03:34;13.70;;;5.00;;
84431;SDS011;74658;51.736;7.038;2024-03-25T23:08:35;9.00;;;3.70;;
84431;SDS011;74658;51.736;7.038;2024-03-25T23:13:36;10.60;;;4.10;;
84431;SDS011;74658;51.736;7.038;2024-03-25T23:18:36;11.70;;;3.40;;
84431;SDS011;74658;51.736;7.038;2024-03-25T23:23:37;10.20;;;3.80;;
84431;SDS011;74658;51.736;7.038;2024-03-25T23:28:37;11.40;;;3.80;;
84431;SDS011;74658;51.736;7.038;2024-03-25T23:33:38;12.00;;;4.00;;
84431;SDS011;74658;51.736;7.038;2024-03-25T23:38:38;14.10;;;4.30;;
84431;SDS011;74658;51.736;7.038;2024-03-25T23:43:39;10.40;;;3.70;;
84431;SDS011;74658;51.736;7.038;2024-03-25T23:48:40;11.40;;;4.00;;
84431;SDS011;74658;51.736;7.038;2024-03-25T23:53:40;10.20;;;3.30;;
84431;SDS011;74658;51.736;7.038;2024-03-25T23:58:41;15.30;;;3.80;;
